createdAt,value
2023-03-05T00:01:45.268Z,97114.09
2023-03-05T00:04:16.496Z,97108.97
2023-03-05T00:06:45.097Z,97110.03
2023-03-05T00:09:16.853Z,97117.31
2023-03-05T00:11:46.624Z,97113.03
2023-03-05T00:14:15.642Z,97108.94
2023-03-05T00:16:44.367Z,97109.75
2023-03-05T00:19:12.997Z,97101.69
2023-03-05T00:21:43.234Z,97114.09
2023-03-05T00:24:18.269Z,97114.66
2023-03-05T00:26:48.657Z,97103.09
2023-03-05T00:29:24.168Z,97108.78
2023-03-05T00:31:52.506Z,97107.47
2023-03-05T00:34:22.082Z,97101.50
2023-03-05T00:36:53.821Z,97105.81
2023-03-05T00:39:23.506Z,97099.94
2023-03-05T00:41:53.619Z,97097.03
2023-03-05T00:44:22.458Z,97097.78
2023-03-05T00:46:52.044Z,97096.44
2023-03-05T00:49:20.624Z,97087.50
2023-03-05T00:51:49.299Z,97090.44
2023-03-05T00:54:17.816Z,97089.66
2023-03-05T00:56:49.913Z,97083.97
2023-03-05T00:59:19.638Z,97087.75
2023-03-05T01:01:48.660Z,97081.06
2023-03-05T01:04:17.012Z,97082.13
2023-03-05T01:06:46.739Z,97076.19
2023-03-05T01:09:16.039Z,97064.09
2023-03-05T01:11:44.417Z,97064.34
2023-03-05T01:14:12.845Z,97061.41
2023-03-05T01:16:42.507Z,97057.44
2023-03-05T01:19:12.695Z,97063.03
2023-03-05T01:21:41.413Z,97061.91
2023-03-05T01:24:10.513Z,97054.44
2023-03-05T01:26:39.287Z,97052.31
2023-03-05T01:29:07.751Z,97055.81
2023-03-05T01:31:36.167Z,97059.88
2023-03-05T01:34:05.930Z,97051.00
2023-03-05T01:36:34.706Z,97050.53
2023-03-05T01:39:07.413Z,97047.59
2023-03-05T01:41:36.158Z,97049.13
2023-03-05T01:44:05.646Z,97046.09
2023-03-05T01:46:36.526Z,97038.28
2023-03-05T01:49:21.075Z,97035.59
2023-03-05T01:52:00.217Z,97037.47
2023-03-05T01:54:33.982Z,97042.91
2023-03-05T01:57:11.332Z,97032.69
2023-03-05T01:59:43.202Z,97029.66
2023-03-05T02:02:11.851Z,97023.72
2023-03-05T02:04:47.498Z,97026.44
2023-03-05T02:07:17.072Z,97023.22
2023-03-05T02:09:45.494Z,97018.63
2023-03-05T02:12:16.071Z,97016.28
2023-03-05T02:14:49.564Z,97021.31
2023-03-05T02:17:21.881Z,97010.81
2023-03-05T02:19:56.144Z,97016.75
2023-03-05T02:22:26.324Z,97003.03
2023-03-05T02:24:54.944Z,96997.44
2023-03-05T02:27:34.979Z,96991.19
2023-03-05T02:30:04.778Z,96993.63
2023-03-05T02:32:33.197Z,96998.72
2023-03-05T02:35:01.774Z,96989.88
2023-03-05T02:37:35.346Z,96985.56
2023-03-05T02:40:04.077Z,96986.38
2023-03-05T02:42:33.700Z,96982.31
2023-03-05T02:45:03.407Z,96981.81
2023-03-05T02:47:32.392Z,96984.69
2023-03-05T02:50:00.882Z,96979.59
2023-03-05T02:52:32.759Z,96973.97
2023-03-05T02:55:01.697Z,96972.13
2023-03-05T02:57:31.947Z,96970.81
2023-03-05T03:00:00.524Z,96970.53
2023-03-05T03:02:28.905Z,96962.47
2023-03-05T03:04:57.385Z,96967.06
2023-03-05T03:07:25.798Z,96963.31
2023-03-05T03:09:59.154Z,96961.38
2023-03-05T03:12:27.523Z,96956.78
2023-03-05T03:14:56.194Z,96959.19
2023-03-05T03:17:24.570Z,96960.28
2023-03-05T03:19:53.130Z,96959.72
2023-03-05T03:22:21.793Z,96952.78
2023-03-05T03:24:50.519Z,96957.63
2023-03-05T03:27:20.209Z,96958.94
2023-03-05T03:29:48.575Z,96950.84
2023-03-05T03:32:16.971Z,96949.53
2023-03-05T03:34:45.910Z,96948.72
2023-03-05T03:37:14.312Z,96937.69
2023-03-05T03:39:42.657Z,96929.63
2023-03-05T03:42:11.284Z,96931.28
2023-03-05T03:44:40.990Z,96930.19
2023-03-05T03:47:09.665Z,96930.97
2023-03-05T03:49:38.252Z,96934.72
2023-03-05T03:52:07.726Z,96931.25
2023-03-05T03:54:36.358Z,96924.22
2023-03-05T03:57:04.775Z,96921.53
2023-03-05T03:59:33.082Z,96925.31
2023-03-05T04:02:02.819Z,96922.03
2023-03-05T04:04:31.361Z,96917.25
2023-03-05T04:06:59.693Z,96923.16
2023-03-05T04:09:28.104Z,96921.53
2023-03-05T04:11:56.392Z,96924.75
2023-03-05T04:14:26.716Z,96920.19
2023-03-05T04:16:58.288Z,96917.75
2023-03-05T04:19:34.055Z,96916.13
2023-03-05T04:22:02.366Z,96913.97
2023-03-05T04:24:31.022Z,96909.41
2023-03-05T04:27:00.418Z,96909.13
2023-03-05T04:29:28.797Z,96911.88
2023-03-05T04:31:57.229Z,96903.78
2023-03-05T04:34:27.043Z,96905.38
2023-03-05T04:36:55.761Z,96906.16
2023-03-05T04:39:24.046Z,96900.00
2023-03-05T04:41:52.406Z,96899.47
2023-03-05T04:44:23.278Z,96895.16
2023-03-05T04:46:51.994Z,96906.16
2023-03-05T04:49:20.366Z,96896.22
2023-03-05T04:51:50.017Z,96889.75
2023-03-05T04:54:18.698Z,96883.31
2023-03-05T04:56:47.071Z,96889.75
2023-03-05T04:59:15.820Z,96886.78
2023-03-05T05:01:44.132Z,96883.28
2023-03-05T05:04:12.467Z,96884.34
2023-03-05T05:06:41.176Z,96879.22
2023-03-05T05:09:10.907Z,96894.06
2023-03-05T05:11:39.283Z,96880.88
2023-03-05T05:14:08.333Z,96888.69
2023-03-05T05:16:37.080Z,96890.84
2023-03-05T05:19:05.497Z,96885.47
2023-03-05T05:21:33.867Z,96877.66
2023-03-05T05:24:02.178Z,96880.59
2023-03-05T05:26:35.837Z,96875.50
2023-03-05T05:29:04.234Z,96879.22
2023-03-05T05:31:32.816Z,96879.53
2023-03-05T05:34:01.242Z,96879.25
2023-03-05T05:36:29.855Z,96871.47
2023-03-05T05:39:01.368Z,96875.78
2023-03-05T05:41:31.498Z,96875.75
2023-03-05T05:43:59.758Z,96869.03
2023-03-05T05:46:29.067Z,96870.09
2023-03-05T05:48:57.438Z,96860.41
2023-03-05T05:51:26.373Z,96865.28
2023-03-05T05:53:55.062Z,96868.25
2023-03-05T05:56:23.432Z,96874.97
2023-03-05T05:58:53.317Z,96865.53
2023-03-05T06:01:25.216Z,96877.16
2023-03-05T06:03:53.908Z,96884.97
2023-03-05T06:06:24.814Z,96896.00
2023-03-05T06:08:54.828Z,96888.22
2023-03-05T06:11:24.220Z,96881.78
2023-03-05T06:13:54.341Z,96887.72
2023-03-05T06:16:25.964Z,96888.28
2023-03-05T06:18:54.787Z,96882.91
2023-03-05T06:21:24.802Z,96896.31
2023-03-05T06:23:53.294Z,96893.13
2023-03-05T06:26:24.054Z,96892.06
2023-03-05T06:28:54.942Z,96887.22
2023-03-05T06:31:26.617Z,96885.59
2023-03-05T06:33:58.165Z,96886.66
2023-03-05T06:36:27.170Z,96885.31
2023-03-05T06:38:55.994Z,96894.97
2023-03-05T06:41:27.334Z,96879.41
2023-03-05T06:43:58.085Z,96888.53
2023-03-05T06:46:29.566Z,96884.25
2023-03-05T06:49:00.695Z,96883.97
2023-03-05T06:51:32.170Z,96885.56
2023-03-05T06:54:04.004Z,96885.84
2023-03-05T06:56:33.121Z,96881.31
2023-03-05T06:59:02.795Z,96871.09
2023-03-05T07:01:31.175Z,96879.16
2023-03-05T07:04:00.503Z,96884.03
2023-03-05T07:06:29.940Z,96873.56
2023-03-05T07:09:01.289Z,96869.00
2023-03-05T07:11:31.071Z,96877.63
2023-03-05T07:14:00.005Z,96867.91
2023-03-05T07:16:33.783Z,96872.75
2023-03-05T07:19:07.523Z,96867.66
2023-03-05T07:21:39.734Z,96876.00
2023-03-05T07:24:09.809Z,96870.34
2023-03-05T07:26:38.224Z,96865.03
2023-03-05T07:29:09.811Z,96865.28
2023-03-05T07:31:40.446Z,96863.66
2023-03-05T07:34:08.788Z,96864.19
2023-03-05T07:36:38.359Z,96864.75
2023-03-05T07:39:07.153Z,96863.69
2023-03-05T07:41:35.893Z,96860.97
2023-03-05T07:44:04.581Z,96857.75
2023-03-05T07:46:35.030Z,96854.53
2023-03-05T07:49:05.308Z,96850.19
2023-03-05T07:51:33.699Z,96850.78
2023-03-05T07:54:02.182Z,96851.91
2023-03-05T07:56:35.185Z,96853.50
2023-03-05T07:59:06.664Z,96853.78
2023-03-05T08:01:36.112Z,96847.84
2023-03-05T08:04:07.828Z,96844.63
2023-03-05T08:06:36.193Z,96844.63
2023-03-05T08:09:04.590Z,96852.19
2023-03-05T08:11:33.001Z,96843.31
2023-03-05T08:14:01.394Z,96843.84
2023-03-05T08:16:29.652Z,96841.44
2023-03-05T08:18:59.356Z,96840.91
2023-03-05T08:21:33.711Z,96837.38
2023-03-05T08:24:04.108Z,96842.25
2023-03-05T08:26:34.907Z,96836.06
2023-03-05T08:29:03.894Z,96837.69
2023-03-05T08:31:33.190Z,96836.84
2023-03-05T08:34:03.884Z,96833.06
2023-03-05T08:36:34.586Z,96824.44
2023-03-05T08:39:03.526Z,96826.84
2023-03-05T08:41:31.861Z,96816.03
2023-03-05T08:44:01.016Z,96821.69
2023-03-05T08:46:29.958Z,96821.72
2023-03-05T08:48:58.635Z,96827.38
2023-03-05T08:51:28.286Z,96820.06
2023-03-05T08:54:00.229Z,96820.56
2023-03-05T08:56:31.206Z,96817.84
2023-03-05T08:58:59.625Z,96826.25
2023-03-05T09:01:28.211Z,96822.19
2023-03-05T09:03:56.768Z,96827.28
2023-03-05T09:06:25.160Z,96824.81
2023-03-05T09:08:54.135Z,96825.34
2023-03-05T09:11:24.254Z,96818.31
2023-03-05T09:13:52.680Z,96817.25
2023-03-05T09:16:22.699Z,96813.44
2023-03-05T09:18:51.421Z,96808.28
2023-03-05T09:21:20.175Z,96813.97
2023-03-05T09:23:48.872Z,96799.38
2023-03-05T09:26:20.192Z,96815.84
2023-03-05T09:28:50.128Z,96802.03
2023-03-05T09:31:18.938Z,96799.53
2023-03-05T09:33:49.550Z,96803.47
2023-03-05T09:36:21.847Z,96804.56
2023-03-05T09:38:50.451Z,96811.00
2023-03-05T09:41:34.516Z,96799.84
2023-03-05T09:44:22.380Z,96800.09
2023-03-05T09:46:56.426Z,96796.59
2023-03-05T09:49:43.755Z,96801.44
2023-03-05T09:52:21.809Z,96796.28
2023-03-05T09:54:57.527Z,96793.94
2023-03-05T09:57:37.046Z,96797.97
2023-03-05T10:00:23.033Z,96789.06
2023-03-05T10:02:58.430Z,96791.19
2023-03-05T10:05:49.936Z,96787.88
2023-03-05T10:08:28.550Z,96786.47
2023-03-05T10:10:56.989Z,96782.94
2023-03-05T10:13:29.720Z,96779.13
2023-03-05T10:16:23.853Z,96786.88
2023-03-05T10:19:07.130Z,96775.88
2023-03-05T10:21:43.409Z,96776.78
2023-03-05T10:24:22.291Z,96775.63
2023-03-05T10:27:03.397Z,96772.59
2023-03-05T10:29:56.041Z,96768.44
2023-03-05T10:32:42.756Z,96768.69
2023-03-05T10:35:35.324Z,96761.84
2023-03-05T10:38:54.903Z,96760.63
2023-03-05T10:41:34.001Z,96761.38
2023-03-05T10:44:12.616Z,96753.75
2023-03-05T10:46:42.179Z,96754.69
2023-03-05T10:49:21.373Z,96744.13
2023-03-05T10:51:58.455Z,96745.94
2023-03-05T10:54:30.902Z,96741.78
2023-03-05T10:57:06.710Z,96736.38
2023-03-05T10:59:35.026Z,96741.75
2023-03-05T11:02:09.746Z,96737.88
2023-03-05T11:04:42.002Z,96725.25
2023-03-05T11:07:37.348Z,96726.81
2023-03-05T11:10:21.378Z,96720.63
2023-03-05T11:12:50.775Z,96717.13
2023-03-05T11:15:30.912Z,96718.25
2023-03-05T11:18:21.277Z,96711.31
2023-03-05T11:20:51.634Z,96707.28
2023-03-05T11:23:23.594Z,96707.72
2023-03-05T11:26:04.242Z,96705.09
2023-03-05T11:28:37.094Z,96700.53
2023-03-05T11:31:21.100Z,96700.47
2023-03-05T11:33:59.999Z,96702.50
2023-03-05T11:36:32.628Z,96687.00
2023-03-05T11:39:11.666Z,96683.88
2023-03-05T11:41:44.656Z,96688.59
2023-03-05T11:44:18.379Z,96683.69
2023-03-05T11:46:51.933Z,96677.50
2023-03-05T11:49:26.717Z,96685.78
2023-03-05T11:52:08.243Z,96681.22
2023-03-05T11:54:51.052Z,96681.31
2023-03-05T11:57:22.499Z,96678.69
2023-03-05T11:59:53.568Z,96672.25
2023-03-05T12:02:26.567Z,96667.88
2023-03-05T12:04:56.095Z,96664.34
2023-03-05T12:07:36.962Z,96661.59
2023-03-05T12:10:06.685Z,96665.16
2023-03-05T12:12:46.729Z,96656.41
2023-03-05T12:15:45.357Z,96656.91
2023-03-05T12:18:31.179Z,96640.47
2023-03-05T12:21:09.028Z,96645.06
2023-03-05T12:23:52.086Z,96639.28
2023-03-05T12:26:56.126Z,96641.00
2023-03-05T12:29:40.712Z,96640.44
2023-03-05T12:33:02.275Z,96630.69
2023-03-05T12:35:37.184Z,96632.13
2023-03-05T12:38:32.176Z,96634.41
2023-03-05T12:41:44.456Z,96626.06
2023-03-05T12:44:23.776Z,96625.22
2023-03-05T12:47:23.751Z,96620.91
2023-03-05T12:49:53.340Z,96624.16
2023-03-05T12:52:27.369Z,96620.91
2023-03-05T12:55:20.271Z,96617.13
2023-03-05T12:58:04.148Z,96612.94
2023-03-05T13:00:44.359Z,96608.06
2023-03-05T13:03:20.791Z,96608.06
2023-03-05T13:05:52.360Z,96599.97
2023-03-05T13:08:26.367Z,96599.97
2023-03-05T13:10:59.437Z,96596.13
2023-03-05T13:13:35.891Z,96598.78
2023-03-05T13:16:05.773Z,96591.81
2023-03-05T13:18:36.815Z,96601.81
2023-03-05T13:21:08.827Z,96590.97
2023-03-05T13:23:37.396Z,96593.66
2023-03-05T13:26:18.535Z,96600.66
2023-03-05T13:29:10.963Z,96599.41
2023-03-05T13:31:44.962Z,96596.63
2023-03-05T13:34:20.262Z,96592.03
2023-03-05T13:36:56.824Z,96595.59
2023-03-05T13:39:30.305Z,96597.25
2023-03-05T13:42:07.174Z,96590.22
2023-03-05T13:44:36.870Z,96592.69
2023-03-05T13:47:17.047Z,96583.09
2023-03-05T13:49:47.348Z,96586.78
2023-03-05T13:52:26.509Z,96588.72
2023-03-05T13:54:54.893Z,96588.19
2023-03-05T13:57:40.579Z,96591.19
2023-03-05T14:00:32.925Z,96581.19
2023-03-05T14:03:11.682Z,96576.88
2023-03-05T14:05:45.769Z,96579.53
2023-03-05T14:08:22.957Z,96576.84
2023-03-05T14:10:52.645Z,96573.56
2023-03-05T14:13:27.088Z,96563.81
2023-03-05T14:16:08.661Z,96566.28
2023-03-05T14:18:38.478Z,96560.06
2023-03-05T14:21:10.037Z,96559.44
2023-03-05T14:23:43.005Z,96561.88
2023-03-05T14:26:33.619Z,96554.06
2023-03-05T14:29:06.141Z,96548.03
2023-03-05T14:31:50.070Z,96553.16
2023-03-05T14:34:27.315Z,96555.09
2023-03-05T14:36:59.468Z,96543.16
2023-03-05T14:39:41.248Z,96534.53
2023-03-05T14:42:33.874Z,96541.69
2023-03-05T14:45:11.182Z,96540.41
2023-03-05T14:47:41.437Z,96534.16
2023-03-05T14:50:15.867Z,96532.84
2023-03-05T14:52:45.298Z,96529.88
2023-03-05T14:55:17.217Z,96530.44
2023-03-05T14:57:46.414Z,96525.94
2023-03-05T15:00:20.063Z,96522.41
2023-03-05T15:02:50.131Z,96523.19
2023-03-05T15:05:19.971Z,96522.03
2023-03-05T15:07:50.191Z,96503.38
2023-03-05T15:10:21.472Z,96511.03
2023-03-05T15:12:51.307Z,96504.78
2023-03-05T15:15:20.884Z,96502.91
2023-03-05T15:17:54.979Z,96501.34
2023-03-05T15:20:26.868Z,96497.03
2023-03-05T15:22:55.880Z,96493.81
2023-03-05T15:25:26.804Z,96495.41
2023-03-05T15:27:55.187Z,96487.66
2023-03-05T15:30:29.589Z,96483.59
2023-03-05T15:33:03.624Z,96477.09
2023-03-05T15:35:32.133Z,96477.84
2023-03-05T15:38:00.593Z,96475.50
2023-03-05T15:40:30.147Z,96471.19
2023-03-05T15:43:00.703Z,96470.38
2023-03-05T15:45:31.314Z,96464.19
2023-03-05T15:48:01.231Z,96466.00
2023-03-05T15:50:29.797Z,96467.41
2023-03-05T15:53:02.742Z,96465.50
2023-03-05T15:55:31.120Z,96457.00
2023-03-05T15:57:59.782Z,96459.09
2023-03-05T16:00:31.814Z,96465.41
2023-03-05T16:03:01.536Z,96462.25
2023-03-05T16:05:30.274Z,96460.69
2023-03-05T16:08:00.528Z,96457.75
2023-03-05T16:10:31.513Z,96461.25
2023-03-05T16:13:05.248Z,96457.19
2023-03-05T16:15:35.542Z,96447.19
2023-03-05T16:18:11.571Z,96449.38
2023-03-05T16:20:39.921Z,96445.94
2023-03-05T16:23:08.704Z,96441.91
2023-03-05T16:25:38.266Z,96436.28
2023-03-05T16:28:07.116Z,96440.84
2023-03-05T16:30:35.658Z,96438.44
2023-03-05T16:33:05.683Z,96435.72
2023-03-05T16:35:34.517Z,96438.06
2023-03-05T16:38:03.755Z,96432.72
2023-03-05T16:40:56.609Z,96426.63
2023-03-05T16:43:20.677Z,96436.88
2023-03-05T16:45:49.048Z,96426.91
2023-03-05T16:48:18.754Z,96430.44
2023-03-05T16:50:47.111Z,96429.13
2023-03-05T16:53:15.527Z,96428.59
2023-03-05T16:55:43.863Z,96428.31
2023-03-05T16:58:12.185Z,96425.09
2023-03-05T17:00:40.592Z,96424.03
2023-03-05T17:03:09.048Z,96420.59
2023-03-05T17:05:39.612Z,96415.19
2023-03-05T17:08:08.776Z,96424.06
2023-03-05T17:10:37.038Z,96422.22
2023-03-05T17:13:05.345Z,96421.16
2023-03-05T17:15:34.467Z,96421.44
2023-03-05T17:18:03.583Z,96423.03
2023-03-05T17:20:33.910Z,96420.06
2023-03-05T17:23:04.276Z,96417.94
2023-03-05T17:25:32.582Z,96423.03
2023-03-05T17:28:01.178Z,96420.06
2023-03-05T17:30:31.362Z,96417.66
2023-03-05T17:32:59.830Z,96409.06
2023-03-05T17:35:29.534Z,96414.75
2023-03-05T17:37:58.320Z,96419.84
2023-03-05T17:40:28.367Z,96420.72
2023-03-05T17:42:57.021Z,96415.31
2023-03-05T17:45:25.540Z,96423.41
2023-03-05T17:47:54.000Z,96423.09
2023-03-05T17:50:22.765Z,96424.91
2023-03-05T17:52:51.163Z,96421.34
2023-03-05T17:55:20.223Z,96425.03
2023-03-05T17:57:50.370Z,96424.53
2023-03-05T18:00:23.335Z,96423.13
2023-03-05T18:02:52.688Z,96419.09
2023-03-05T18:05:23.800Z,96423.97
2023-03-05T18:07:52.887Z,96422.84
2023-03-05T18:10:23.701Z,96421.03
2023-03-05T18:12:53.579Z,96418.91
2023-03-05T18:15:25.235Z,96415.38
2023-03-05T18:17:54.781Z,96411.31
2023-03-05T18:20:31.723Z,96415.94
2023-03-05T18:23:05.559Z,96408.13
2023-03-05T18:25:34.090Z,96408.72
2023-03-05T18:28:06.614Z,96410.31
2023-03-05T18:30:35.859Z,96407.16
2023-03-05T18:33:05.555Z,96403.66
2023-03-05T18:35:34.418Z,96406.53
2023-03-05T18:38:03.185Z,96403.84
2023-03-05T18:40:36.000Z,96401.19
2023-03-05T18:43:05.784Z,96397.97
2023-03-05T18:45:34.659Z,96403.06
2023-03-05T18:48:03.309Z,96394.97
2023-03-05T18:50:32.070Z,96387.78
2023-03-05T18:53:01.028Z,96389.59
2023-03-05T18:55:31.588Z,96387.44
2023-03-05T18:58:00.002Z,96382.63
2023-03-05T19:00:32.576Z,96376.31
2023-03-05T19:03:03.416Z,96385.78
2023-03-05T19:05:32.259Z,96380.44
2023-03-05T19:08:01.617Z,96396.28
2023-03-05T19:10:30.084Z,96394.75
2023-03-05T19:13:08.088Z,96391.53
2023-03-05T19:15:41.245Z,96389.41
2023-03-05T19:18:09.754Z,96389.91
2023-03-05T19:20:38.216Z,96381.03
2023-03-05T19:23:06.548Z,96381.84
2023-03-05T19:25:36.577Z,96375.19
2023-03-05T19:28:05.232Z,96370.63
2023-03-05T19:30:33.968Z,96373.09
2023-03-05T19:33:03.836Z,96365.81
2023-03-05T19:35:32.233Z,96370.63
2023-03-05T19:38:00.548Z,96368.13
2023-03-05T19:40:29.094Z,96366.78
2023-03-05T19:42:58.651Z,96362.50
2023-03-05T19:45:27.334Z,96364.41
2023-03-05T19:47:55.779Z,96364.06
2023-03-05T19:50:25.598Z,96361.84
2023-03-05T19:52:53.962Z,96364.88
2023-03-05T19:55:22.875Z,96358.13
2023-03-05T19:57:51.411Z,96351.41
2023-03-05T20:00:21.365Z,96358.47
2023-03-05T20:02:49.724Z,96349.63
2023-03-05T20:05:18.636Z,96353.97
2023-03-05T20:07:48.456Z,96348.31
2023-03-05T20:10:20.331Z,96356.84
2023-03-05T20:12:50.568Z,96356.00
2023-03-05T20:15:19.791Z,96357.34
2023-03-05T20:17:48.613Z,96351.25
2023-03-05T20:20:20.045Z,96357.44
2023-03-05T20:22:49.829Z,96352.78
2023-03-05T20:25:22.286Z,96347.97
2023-03-05T20:27:51.000Z,96343.72
2023-03-05T20:30:20.024Z,96357.34
2023-03-05T20:32:48.354Z,96342.78
2023-03-05T20:35:19.392Z,96345.53
2023-03-05T20:38:00.229Z,96351.81
2023-03-05T20:40:28.807Z,96347.00
2023-03-05T20:42:57.489Z,96341.84
2023-03-05T20:45:26.115Z,96338.38
2023-03-05T20:47:54.659Z,96332.78
2023-03-05T20:50:23.713Z,96323.72
2023-03-05T20:52:53.458Z,96337.81
2023-03-05T20:55:23.465Z,96328.97
2023-03-05T20:57:52.561Z,96329.84
2023-03-05T21:00:21.390Z,96322.59
2023-03-05T21:02:51.641Z,96312.22
2023-03-05T21:05:22.094Z,96312.50
2023-03-05T21:07:52.660Z,96316.00
2023-03-05T21:10:22.249Z,96311.72
2023-03-05T21:12:53.374Z,96320.09
2023-03-05T21:15:24.432Z,96317.94
2023-03-05T21:17:53.577Z,96319.31
2023-03-05T21:20:27.087Z,96314.78
2023-03-05T21:22:58.281Z,96312.63
2023-03-05T21:25:29.130Z,96309.91
2023-03-05T21:28:02.136Z,96302.34
2023-03-05T21:30:34.632Z,96297.53
2023-03-05T21:33:06.004Z,96285.44
2023-03-05T21:35:35.487Z,96299.97
2023-03-05T21:38:08.090Z,96287.03
2023-03-05T21:40:39.890Z,96281.38
2023-03-05T21:43:08.238Z,96278.16
2023-03-05T21:45:36.662Z,96279.75
2023-03-05T21:48:06.068Z,96280.78
2023-03-05T21:50:34.586Z,96274.63
2023-03-05T21:53:04.817Z,96272.19
2023-03-05T21:55:43.094Z,96276.00
2023-03-05T21:58:11.755Z,96266.34
2023-03-05T22:00:40.103Z,96269.03
2023-03-05T22:03:08.763Z,96266.84
2023-03-05T22:05:37.299Z,96259.81
2023-03-05T22:08:07.734Z,96270.56
2023-03-05T22:10:36.096Z,96264.38
2023-03-05T22:13:12.465Z,96261.97
2023-03-05T22:15:47.360Z,96262.75
2023-03-05T22:18:18.226Z,96256.72
2023-03-05T22:20:47.011Z,96255.38
2023-03-05T22:23:18.626Z,96255.97
2023-03-05T22:25:47.342Z,96250.59
2023-03-05T22:28:17.355Z,96248.50
2023-03-05T22:30:46.801Z,96245.81
2023-03-05T22:33:15.453Z,96241.28
2023-03-05T22:35:45.739Z,96240.75
2023-03-05T22:38:15.907Z,96242.38
2023-03-05T22:40:46.752Z,96238.06
2023-03-05T22:43:16.662Z,96231.38
2023-03-05T22:45:45.782Z,96221.13
2023-03-05T22:48:15.394Z,96227.84
2023-03-05T22:50:45.168Z,96223.50
2023-03-05T22:53:13.944Z,96219.16
2023-03-05T22:55:45.370Z,96219.16
2023-03-05T22:58:14.293Z,96214.31
2023-03-05T23:00:42.746Z,96205.69
2023-03-05T23:03:11.052Z,96213.47
2023-03-05T23:05:41.428Z,96210.75
2023-03-05T23:08:10.108Z,96199.41
2023-03-05T23:10:38.816Z,96205.03
2023-03-05T23:13:08.588Z,96196.44
2023-03-05T23:15:39.447Z,96198.84
2023-03-05T23:18:08.374Z,96190.84
2023-03-05T23:20:38.938Z,96196.78
2023-03-05T23:23:07.737Z,96203.50
2023-03-05T23:25:37.659Z,96188.25
2023-03-05T23:28:06.338Z,96188.84
2023-03-05T23:30:39.492Z,96191.59
2023-03-05T23:33:18.057Z,96187.50
2023-03-05T23:35:53.423Z,96179.78
2023-03-05T23:38:22.768Z,96179.78
2023-03-05T23:40:54.033Z,96183.53
2023-03-05T23:43:25.605Z,96177.88
2023-03-05T23:45:55.977Z,96180.31
2023-03-05T23:48:27.309Z,96175.47
2023-03-05T23:50:56.437Z,96187.53
2023-03-05T23:53:27.914Z,96175.16
2023-03-05T23:55:58.051Z,96173.22
2023-03-05T23:58:26.572Z,96162.97
